Time;durP1;ratioP1;P1;durP2;ratioP2;P2;SDS_P1;SDS_P2;PMS_P1;PMS_P2;Temp;Humidity;BMP_temperature;BMP_pressure;BME280_temperature;BME280_humidity;BME280_pressure;Samples;Min_cycle;Max_cycle;Signal;HPM_P1;HPM_P2
2022/11/10 00:00:54;;;;;;;89.00;55.95;;;13.40;99.90;;;;;;5034963;28;20026;-76
2022/11/10 00:03:20;;;;;;;89.88;54.35;;;13.40;99.90;;;;;;5050592;28;20033;-77
2022/11/10 00:05:46;;;;;;;87.97;54.35;;;13.40;99.90;;;;;;5034967;28;20036;-77
2022/11/10 00:08:12;;;;;;;86.57;55.28;;;13.40;99.90;;;;;;5017235;28;20030;-77
2022/11/10 00:10:57;;;;;;;90.07;54.58;;;13.40;99.90;;;;;;5050319;28;20518;-77
2022/11/10 00:13:27;;;;;;;93.78;56.20;;;13.40;99.90;;;;;;5016986;28;20506;-77
2022/11/10 00:18:42;;;;;;;102.45;62.83;;;13.40;99.90;;;;;;5005024;28;20049;-77
2022/11/10 00:21:09;;;;;;;101.07;63.13;;;13.40;99.90;;;;;;5033886;28;20029;-77
2022/11/10 00:23:35;;;;;;;97.97;61.42;;;13.40;99.90;;;;;;5032719;28;20022;-77
2022/11/10 00:26:01;;;;;;;103.10;63.45;;;13.40;99.90;;;;;;5014769;28;20391;-77
2022/11/10 00:28:30;;;;;;;107.45;63.10;;;13.50;99.90;;;;;;5032777;28;20022;-74
2022/11/10 00:30:57;;;;;;;107.70;62.92;;;13.40;99.90;;;;;;5015920;28;20025;-77
2022/11/10 00:33:22;;;;;;;108.50;66.25;;;13.40;99.90;;;;;;5034302;28;20028;-77
2022/11/10 00:35:48;;;;;;;114.97;68.47;;;13.40;99.90;;;;;;5034499;28;20026;-77
2022/11/10 00:38:14;;;;;;;112.97;69.28;;;13.40;99.90;;;;;;5033036;28;20100;-77
2022/11/10 00:40:40;;;;;;;112.13;69.03;;;13.40;99.90;;;;;;5034279;28;20071;-77
2022/11/10 00:43:05;;;;;;;110.40;69.57;;;13.40;99.90;;;;;;5016611;28;20033;-77
2022/11/10 00:45:31;;;;;;;113.63;66.90;;;13.40;99.90;;;;;;5033955;28;20377;-77
2022/11/10 00:47:57;;;;;;;107.20;66.53;;;13.40;99.90;;;;;;5034099;28;20116;-77
2022/11/10 00:50:23;;;;;;;103.95;63.80;;;13.50;99.90;;;;;;5049620;28;20063;-77
2022/11/10 00:52:49;;;;;;;104.55;63.67;;;13.50;99.90;;;;;;5033888;28;20033;-77
2022/11/10 00:55:14;;;;;;;117.03;67.57;;;13.50;99.90;;;;;;5033929;28;20032;-77
2022/11/10 00:57:40;;;;;;;113.60;68.00;;;13.50;99.90;;;;;;5034157;28;20387;-77
2022/11/10 01:00:06;;;;;;;128.55;78.00;;;13.50;99.90;;;;;;5034048;28;20186;-77
2022/11/10 01:02:32;;;;;;;158.32;90.32;;;13.50;99.90;;;;;;5016092;28;20618;-77
2022/11/10 01:04:58;;;;;;;166.43;89.78;;;13.50;99.90;;;;;;5033788;28;20021;-77
2022/11/10 01:07:23;;;;;;;144.43;86.40;;;13.50;99.90;;;;;;5049050;28;20487;-74
2022/11/10 01:09:49;;;;;;;130.35;77.15;;;13.50;99.90;;;;;;5016014;28;20151;-74
2022/11/10 01:12:15;;;;;;;109.00;65.60;;;13.50;99.90;;;;;;5049100;28;20037;-74
2022/11/10 01:14:46;;;;;;;110.80;68.07;;;13.50;99.90;;;;;;5033475;28;20268;-75
2022/11/10 01:17:12;;;;;;;105.00;64.87;;;13.50;99.90;;;;;;5051072;28;20084;-77
2022/11/10 01:19:37;;;;;;;108.13;66.35;;;13.50;99.90;;;;;;5033690;28;20029;-77
2022/11/10 01:22:03;;;;;;;116.40;68.55;;;13.50;99.90;;;;;;5015750;28;20466;-77
2022/11/10 01:24:29;;;;;;;125.40;71.85;;;13.50;99.90;;;;;;5015448;28;20079;-77
2022/11/10 01:26:54;;;;;;;121.20;72.43;;;13.50;99.90;;;;;;5015555;28;20044;-77
2022/11/10 01:29:20;;;;;;;128.55;74.95;;;13.50;99.90;;;;;;5033164;28;20033;-77
2022/11/10 01:31:46;;;;;;;135.35;76.47;;;13.50;99.90;;;;;;5033234;28;20386;-77
2022/11/10 01:34:12;;;;;;;126.82;75.47;;;13.50;99.90;;;;;;5033399;28;20029;-74
2022/11/10 01:36:40;;;;;;;117.88;72.75;;;13.50;99.90;;;;;;5032921;28;20132;-74
2022/11/10 01:39:06;;;;;;;123.00;72.05;;;13.50;99.90;;;;;;5033096;28;20935;-77
2022/11/10 01:41:31;;;;;;;116.03;72.13;;;13.50;99.90;;;;;;5015422;28;20072;-77
2022/11/10 01:44:21;;;;;;;110.03;68.63;;;13.50;99.90;;;;;;5015025;28;20029;-77
2022/11/10 01:46:47;;;;;;;109.60;67.65;;;13.50;99.90;;;;;;5032982;28;20049;-77
2022/11/10 01:49:16;;;;;;;111.97;67.32;;;13.50;99.90;;;;;;5014688;28;20120;-77
2022/11/10 01:51:48;;;;;;;111.47;69.55;;;13.50;99.90;;;;;;5032687;28;20486;-77
2022/11/10 01:54:21;;;;;;;116.25;71.07;;;13.50;99.90;;;;;;5048099;28;20084;-77
2022/11/10 01:56:59;;;;;;;123.93;71.20;;;13.50;99.90;;;;;;5032549;28;20029;-77
2022/11/10 01:59:30;;;;;;;119.03;72.03;;;13.50;99.90;;;;;;5015135;28;20053;-77
2022/11/10 02:02:18;;;;;;;121.28;71.43;;;13.50;99.90;;;;;;5015151;28;20124;-77
2022/11/10 02:04:45;;;;;;;117.43;71.63;;;13.50;99.90;;;;;;5014764;28;20025;-74
2022/11/10 02:07:11;;;;;;;131.50;70.43;;;13.50;99.90;;;;;;5032749;28;20545;-74
2022/11/10 02:09:36;;;;;;;116.35;69.55;;;13.50;99.90;;;;;;5014730;28;20277;-74
2022/11/10 02:12:03;;;;;;;111.45;68.00;;;13.50;99.90;;;;;;5032530;28;20080;-74
2022/11/10 02:14:28;;;;;;;131.52;74.10;;;13.50;99.90;;;;;;5014820;28;20037;-74
2022/11/10 02:16:54;;;;;;;109.97;67.53;;;13.50;99.90;;;;;;5014344;28;20034;-74
2022/11/10 02:19:25;;;;;;;112.63;65.07;;;13.50;99.90;;;;;;5014400;28;20026;-74
2022/11/10 02:21:51;;;;;;;105.00;62.28;;;13.50;99.90;;;;;;5016971;28;20475;-77
2022/11/10 02:24:16;;;;;;;117.22;65.97;;;13.50;99.90;;;;;;5014523;28;20028;-77
2022/11/10 02:26:56;;;;;;;108.43;63.45;;;13.50;99.90;;;;;;5032055;28;20399;-78
2022/11/10 02:29:25;;;;;;;108.53;65.38;;;13.50;99.90;;;;;;5047683;28;20475;-78
2022/11/10 02:31:51;;;;;;;110.95;63.50;;;13.50;99.90;;;;;;5031998;28;20479;-77
2022/11/10 02:34:18;;;;;;;140.85;73.85;;;13.50;99.90;;;;;;5031985;28;20021;-77
2022/11/10 02:36:44;;;;;;;158.30;79.95;;;13.50;99.90;;;;;;5031813;28;20494;-77
2022/11/10 02:39:09;;;;;;;145.65;75.90;;;13.50;99.90;;;;;;5032046;28;20018;-77
2022/11/10 02:41:35;;;;;;;156.35;82.78;;;13.50;99.90;;;;;;5014045;28;20033;-77
2022/11/10 02:44:05;;;;;;;158.57;81.03;;;13.50;99.90;;;;;;5014245;28;20028;-77
2022/11/10 02:46:31;;;;;;;157.13;84.78;;;13.40;99.90;;;;;;5013895;28;20049;-77
2022/11/10 02:48:57;;;;;;;160.40;81.97;;;13.40;99.90;;;;;;5031962;28;20029;-77
2022/11/10 02:51:22;;;;;;;159.50;82.13;;;13.50;99.90;;;;;;5013971;28;20124;-77
2022/11/10 02:53:49;;;;;;;154.60;80.07;;;13.50;99.90;;;;;;5031918;28;20037;-77
2022/11/10 02:56:14;;;;;;;150.00;80.45;;;13.50;99.90;;;;;;5031446;28;20610;-77
2022/11/10 02:58:40;;;;;;;158.00;79.65;;;13.50;99.90;;;;;;5013831;28;20113;-77
2022/11/10 03:01:06;;;;;;;152.40;80.85;;;13.50;99.90;;;;;;5013356;28;20025;-77
2022/11/10 03:03:32;;;;;;;141.23;74.53;;;13.50;99.90;;;;;;5013861;28;20518;-77
2022/11/10 03:05:58;;;;;;;143.60;76.35;;;13.50;99.90;;;;;;5031404;28;20048;-77
2022/11/10 03:08:24;;;;;;;153.98;79.00;;;13.50;99.90;;;;;;5040172;28;20024;-77
2022/11/10 03:10:53;;;;;;;159.20;77.22;;;13.50;99.90;;;;;;5051272;28;20024;-77
2022/11/10 03:13:19;;;;;;;144.20;74.68;;;13.50;99.90;;;;;;5051138;28;20356;-77
2022/11/10 03:15:46;;;;;;;137.68;70.60;;;13.50;99.90;;;;;;5033400;28;20032;-77
2022/11/10 03:18:12;;;;;;;144.15;75.47;;;13.50;99.90;;;;;;5033531;28;20028;-77
2022/11/10 03:20:38;;;;;;;130.35;70.50;;;13.50;99.90;;;;;;5033400;28;20127;-77
2022/11/10 03:23:04;;;;;;;132.07;72.38;;;13.50;99.90;;;;;;5051226;28;20029;-74
2022/11/10 03:25:30;;;;;;;151.60;73.10;;;13.50;99.90;;;;;;5047081;28;20018;-74
2022/11/10 03:27:55;;;;;;;147.40;76.55;;;13.50;99.90;;;;;;5031285;28;20079;-74
2022/11/10 03:30:21;;;;;;;147.25;73.90;;;13.50;99.90;;;;;;5031255;28;20029;-74
2022/11/10 03:32:47;;;;;;;142.10;74.93;;;13.50;99.90;;;;;;5031442;28;20113;-74
2022/11/10 03:35:12;;;;;;;149.25;76.43;;;13.50;99.90;;;;;;5031123;28;20364;-74
2022/11/10 03:37:41;;;;;;;146.82;73.57;;;13.50;99.90;;;;;;5031252;28;20140;-74
2022/11/10 03:40:07;;;;;;;146.23;74.30;;;13.50;99.90;;;;;;5031402;28;20028;-74
2022/11/10 03:42:33;;;;;;;156.85;76.95;;;13.50;99.90;;;;;;5031205;28;20028;-74
2022/11/10 03:44:59;;;;;;;174.45;81.38;;;13.50;99.90;;;;;;5012966;28;20026;-74
2022/11/10 03:47:24;;;;;;;175.60;79.30;;;13.50;99.90;;;;;;5031260;28;20032;-74
2022/11/10 03:49:50;;;;;;;174.55;81.97;;;13.50;99.90;;;;;;5031121;28;20349;-75
2022/11/10 03:52:16;;;;;;;175.30;82.28;;;13.50;99.90;;;;;;5030960;28;20030;-74
2022/11/10 03:54:41;;;;;;;201.65;86.13;;;13.50;99.90;;;;;;5013443;28;20088;-74
2022/11/10 03:57:07;;;;;;;184.60;84.35;;;13.50;99.90;;;;;;5013147;28;20369;-74
2022/11/10 03:59:33;;;;;;;175.35;85.43;;;13.50;99.90;;;;;;5013422;28;20028;-74
2022/11/10 04:01:58;;;;;;;187.40;86.55;;;13.50;99.90;;;;;;5013426;28;20018;-78
2022/11/10 04:09:56;;;;;;;177.10;87.65;;;13.50;99.90;;;;;;5031096;28;20090;-78
2022/11/10 04:17:53;;;;;;;193.35;89.55;;;13.50;99.90;;;;;;5034756;28;20147;-74
2022/11/10 04:20:19;;;;;;;183.85;88.25;;;13.50;99.90;;;;;;5034512;28;20056;-75
2022/11/10 04:25:28;;;;;;;178.40;83.05;;;13.50;99.90;;;;;;5036606;28;20033;-77
2022/11/10 04:27:54;;;;;;;169.38;84.88;;;13.50;99.90;;;;;;5034550;28;20021;-77
2022/11/10 04:30:20;;;;;;;165.25;80.30;;;13.50;99.90;;;;;;5016501;28;20231;-77
2022/11/10 04:32:45;;;;;;;176.82;82.63;;;13.50;99.90;;;;;;5016576;28;20113;-77
2022/11/10 04:35:11;;;;;;;153.93;76.00;;;13.50;99.90;;;;;;5016450;28;20395;-77
2022/11/10 04:37:36;;;;;;;155.60;76.95;;;13.50;99.90;;;;;;5016354;28;20041;-77
2022/11/10 04:40:02;;;;;;;166.77;79.55;;;13.50;99.90;;;;;;5034359;28;20025;-77
2022/11/10 04:42:28;;;;;;;169.27;81.10;;;13.50;99.90;;;;;;5034042;28;20431;-77
2022/11/10 04:44:54;;;;;;;173.30;82.35;;;13.50;99.90;;;;;;5016037;28;20086;-74
2022/11/10 04:47:19;;;;;;;152.60;76.65;;;13.50;99.90;;;;;;5034110;28;20041;-74
2022/11/10 04:49:45;;;;;;;161.57;76.15;;;13.50;99.90;;;;;;5016230;28;20116;-74
2022/11/10 04:52:14;;;;;;;157.68;75.93;;;13.50;99.90;;;;;;5033859;28;20032;-74
2022/11/10 04:54:39;;;;;;;160.00;77.38;;;13.50;99.90;;;;;;5033865;28;20025;-77
2022/11/10 04:57:05;;;;;;;153.60;75.57;;;13.50;99.90;;;;;;5015989;28;20040;-77
2022/11/10 04:59:31;;;;;;;166.35;76.95;;;13.50;99.90;;;;;;5016030;28;20017;-77
2022/11/10 05:01:56;;;;;;;145.43;73.38;;;13.50;99.90;;;;;;5033789;28;20435;-77
2022/11/10 05:04:22;;;;;;;157.55;76.70;;;13.50;99.90;;;;;;5033649;28;20032;-77
2022/11/10 05:06:48;;;;;;;157.73;77.57;;;13.40;99.90;;;;;;5048801;28;20034;-77
2022/11/10 05:09:13;;;;;;;157.63;79.75;;;13.50;99.90;;;;;;5033912;28;20021;-77
2022/11/10 05:11:39;;;;;;;173.25;77.22;;;13.50;99.90;;;;;;5033559;28;20063;-74
2022/11/10 05:14:05;;;;;;;155.35;79.07;;;13.50;99.90;;;;;;5047140;28;20041;-74
2022/11/10 05:16:30;;;;;;;143.73;74.10;;;13.50;99.90;;;;;;5053135;28;20022;-74
2022/11/10 05:18:57;;;;;;;140.60;71.53;;;13.50;99.90;;;;;;5053284;28;20099;-74
2022/11/10 05:21:22;;;;;;;150.95;75.20;;;13.40;99.90;;;;;;5035479;28;20027;-74
2022/11/10 05:23:48;;;;;;;142.77;74.47;;;13.40;99.90;;;;;;5052654;28;20457;-74
2022/11/10 05:26:16;;;;;;;142.85;72.80;;;13.40;99.90;;;;;;5024763;28;20021;-74
2022/11/10 05:28:44;;;;;;;140.63;71.22;;;13.40;99.90;;;;;;5015364;28;20025;-74
2022/11/10 05:31:11;;;;;;;144.75;74.00;;;13.40;99.90;;;;;;5048544;28;20049;-77
2022/11/10 05:33:37;;;;;;;183.15;81.35;;;13.40;99.90;;;;;;5016448;28;20056;-77
2022/11/10 05:36:04;;;;;;;175.43;82.25;;;13.40;99.90;;;;;;5033859;28;20483;-78
2022/11/10 05:38:30;;;;;;;167.25;82.18;;;13.40;99.90;;;;;;5016584;28;20022;-75
2022/11/10 05:40:56;;;;;;;176.40;81.97;;;13.40;99.90;;;;;;5034520;28;20029;-77
2022/11/10 05:43:22;;;;;;;163.30;78.47;;;13.40;99.90;;;;;;5016355;28;20021;-77
2022/11/10 05:45:51;;;;;;;154.68;73.57;;;13.40;99.90;;;;;;5021514;28;20046;-77
2022/11/10 05:48:17;;;;;;;154.30;78.60;;;13.40;99.90;;;;;;5023568;28;20056;-77
2022/11/10 05:50:44;;;;;;;144.23;73.38;;;13.40;99.90;;;;;;5021618;28;20400;-77
2022/11/10 05:53:09;;;;;;;145.98;76.32;;;13.40;99.90;;;;;;5026246;28;20029;-77
2022/11/10 05:55:35;;;;;;;135.63;71.07;;;13.40;99.90;;;;;;5041578;28;20529;-77
2022/11/10 05:58:01;;;;;;;131.77;68.18;;;13.40;99.90;;;;;;5041219;28;20017;-77
2022/11/10 06:00:29;;;;;;;140.48;70.82;;;13.40;99.90;;;;;;5034126;28;20041;-77
2022/11/10 06:03:00;;;;;;;141.13;71.93;;;13.40;99.90;;;;;;5033571;28;20064;-77
2022/11/10 06:05:27;;;;;;;148.33;70.07;;;13.40;99.90;;;;;;5016324;28;20025;-77
2022/11/10 06:07:54;;;;;;;128.13;66.78;;;13.40;99.90;;;;;;5033963;28;20021;-78
2022/11/10 06:10:20;;;;;;;127.10;64.13;;;13.30;99.90;;;;;;5016409;28;20029;-74
2022/11/10 06:12:45;;;;;;;143.60;66.20;;;13.40;99.90;;;;;;5033818;28;20031;-74
2022/11/10 06:15:12;;;;;;;129.05;64.38;;;13.30;99.90;;;;;;5016062;28;20471;-74
2022/11/10 06:17:38;;;;;;;130.95;65.72;;;13.30;99.90;;;;;;5015957;28;20498;-77
2022/11/10 06:20:04;;;;;;;134.02;64.22;;;13.30;99.90;;;;;;5031270;28;20029;-77
2022/11/10 06:22:29;;;;;;;123.38;57.13;;;13.30;99.90;;;;;;5032120;28;20475;-77
2022/11/10 06:24:55;;;;;;;133.27;48.42;;;13.30;99.90;;;;;;5030608;28;20025;-77
2022/11/10 06:27:21;;;;;;;109.28;47.03;;;13.30;99.90;;;;;;5032096;28;20037;-77
2022/11/10 06:29:46;;;;;;;90.05;43.45;;;13.20;99.90;;;;;;5031922;28;20487;-77
2022/11/10 06:32:12;;;;;;;86.70;43.05;;;13.20;99.90;;;;;;5013064;28;20059;-77
2022/11/10 06:34:38;;;;;;;90.53;41.80;;;13.20;99.90;;;;;;5031791;28;20025;-77
2022/11/10 06:37:03;;;;;;;87.93;37.50;;;13.20;99.90;;;;;;5014084;28;20407;-75
2022/11/10 06:39:29;;;;;;;77.13;36.70;;;13.20;99.90;;;;;;5031925;28;20071;-77
2022/11/10 06:41:54;;;;;;;73.85;37.00;;;13.20;99.90;;;;;;5031526;28;20021;-77
2022/11/10 06:44:20;;;;;;;73.60;37.72;;;13.20;99.90;;;;;;5031961;28;20084;-77
2022/11/10 06:46:46;;;;;;;89.00;38.97;;;13.20;99.90;;;;;;5031593;28;20072;-77
2022/11/10 06:49:11;;;;;;;145.90;40.58;;;13.20;99.90;;;;;;5013917;28;20033;-78
2022/11/10 06:51:37;;;;;;;96.72;38.72;;;13.20;99.90;;;;;;5031862;28;20028;-77
2022/11/10 06:54:03;;;;;;;93.35;39.15;;;13.20;99.90;;;;;;5031711;28;20396;-77
2022/11/10 06:56:29;;;;;;;78.35;38.20;;;13.20;99.90;;;;;;5013676;28;20061;-77
2022/11/10 06:58:54;;;;;;;82.88;39.67;;;13.20;99.90;;;;;;5031799;28;20431;-77
2022/11/10 07:01:25;;;;;;;78.13;39.05;;;13.20;99.90;;;;;;5031509;28;20017;-77
2022/11/10 07:03:53;;;;;;;137.23;42.78;;;13.20;99.90;;;;;;5031524;28;20079;-77
2022/11/10 07:06:20;;;;;;;75.00;38.90;;;13.20;99.90;;;;;;5046635;28;20097;-77
2022/11/10 07:08:46;;;;;;;87.20;41.33;;;13.10;99.90;;;;;;5031680;28;20037;-77
2022/11/10 07:11:13;;;;;;;90.13;42.20;;;13.10;99.90;;;;;;5031452;28;20018;-77
2022/11/10 07:13:38;;;;;;;97.53;43.17;;;13.20;99.90;;;;;;5031428;28;20060;-77
2022/11/10 07:16:06;;;;;;;89.07;41.05;;;13.20;99.90;;;;;;5046733;28;20407;-78
2022/11/10 07:18:32;;;;;;;82.78;41.20;;;13.20;99.90;;;;;;5031228;28;20029;-78
2022/11/10 07:21:00;;;;;;;90.82;43.75;;;13.20;99.90;;;;;;5013616;28;20080;-77
2022/11/10 07:23:26;;;;;;;93.47;44.42;;;13.30;99.90;;;;;;5044706;28;20025;-77
2022/11/10 07:25:52;;;;;;;95.63;44.63;;;13.30;99.90;;;;;;5013550;28;20387;-77
2022/11/10 07:28:17;;;;;;;102.85;46.40;;;13.30;99.90;;;;;;5013487;28;20025;-78
2022/11/10 07:30:46;;;;;;;93.15;42.75;;;13.20;99.90;;;;;;5046563;28;20435;-76
2022/11/10 07:33:13;;;;;;;89.13;42.70;;;13.30;99.90;;;;;;5031399;28;20025;-77
2022/11/10 07:35:40;;;;;;;88.35;41.63;;;13.20;99.90;;;;;;5013513;28;20033;-74
2022/11/10 07:38:11;;;;;;;92.82;43.45;;;13.30;99.90;;;;;;5030947;28;20021;-74
2022/11/10 07:40:38;;;;;;;180.07;46.17;;;13.30;99.90;;;;;;5030971;28;20017;-77
2022/11/10 07:43:04;;;;;;;160.88;46.45;;;13.20;99.90;;;;;;5014761;28;20029;-77
2022/11/10 07:45:31;;;;;;;120.90;46.28;;;13.10;99.90;;;;;;5014638;28;20045;-77
2022/11/10 07:48:05;;;;;;;125.68;45.20;;;13.20;99.90;;;;;;5034536;28;20075;-77
2022/11/10 07:50:32;;;;;;;148.45;48.33;;;13.20;99.90;;;;;;5036445;28;20099;-77
2022/11/10 07:53:18;;;;;;;110.32;46.85;;;13.20;99.90;;;;;;5018408;28;20033;-77
2022/11/10 07:55:51;;;;;;;90.80;43.33;;;13.30;99.90;;;;;;5044877;28;20033;-77
2022/11/10 07:58:17;;;;;;;69.00;36.30;;;13.20;99.90;;;;;;5026651;28;20048;-77
2022/11/10 08:00:44;;;;;;;50.70;29.85;;;13.20;99.90;;;;;;5023549;28;20010;-78
2022/11/10 08:03:16;;;;;;;44.42;27.02;;;13.10;99.90;;;;;;5007726;28;20068;-77
2022/11/10 08:05:42;;;;;;;39.13;25.38;;;13.10;99.90;;;;;;5025424;28;20096;-77
2022/11/10 08:08:08;;;;;;;41.30;25.65;;;13.10;99.90;;;;;;5005517;28;20030;-78
2022/11/10 08:10:34;;;;;;;35.83;23.55;;;13.10;99.90;;;;;;5026244;28;20028;-77
2022/11/10 08:13:03;;;;;;;41.08;25.23;;;13.10;99.90;;;;;;5039063;28;20025;-77
2022/11/10 08:15:30;;;;;;;39.85;26.13;;;13.10;99.90;;;;;;5029606;28;20086;-77
2022/11/10 08:18:05;;;;;;;37.58;24.77;;;13.20;99.90;;;;;;5035481;28;20479;-77
2022/11/10 08:20:31;;;;;;;39.40;24.67;;;13.20;99.90;;;;;;5017956;28;20121;-77
2022/11/10 08:23:02;;;;;;;37.67;24.92;;;13.20;99.90;;;;;;5035912;28;20451;-77
2022/11/10 08:25:29;;;;;;;41.65;26.77;;;13.30;99.90;;;;;;5035761;28;20392;-77
2022/11/10 08:28:03;;;;;;;45.03;27.23;;;13.30;99.90;;;;;;5018563;28;20451;-77
2022/11/10 08:30:29;;;;;;;44.53;28.42;;;13.30;99.90;;;;;;4998147;28;20480;-77
2022/11/10 08:32:57;;;;;;;47.75;27.77;;;13.30;99.90;;;;;;5006059;28;20025;-77
2022/11/10 08:35:29;;;;;;;45.88;28.40;;;13.40;99.90;;;;;;5025881;28;20084;-77
2022/11/10 08:37:55;;;;;;;45.47;29.02;;;13.40;99.90;;;;;;5006923;28;20030;-77
2022/11/10 08:40:22;;;;;;;42.58;27.50;;;13.40;99.90;;;;;;5034906;28;20048;-77
2022/11/10 08:42:58;;;;;;;40.28;27.10;;;13.30;99.90;;;;;;5017563;28;20067;-77
2022/11/10 08:45:23;;;;;;;45.78;27.50;;;13.30;99.90;;;;;;5040629;28;20041;-77
2022/11/10 08:48:00;;;;;;;41.15;28.58;;;13.30;99.90;;;;;;5037434;28;20108;-77
2022/11/10 08:50:27;;;;;;;44.67;29.10;;;13.30;99.90;;;;;;5037396;28;20036;-76
2022/11/10 08:52:53;;;;;;;43.15;27.67;;;13.30;99.90;;;;;;5037323;28;20037;-77
2022/11/10 08:55:19;;;;;;;43.95;28.88;;;13.40;99.90;;;;;;5031599;28;20033;-77
2022/11/10 08:57:45;;;;;;;45.10;29.10;;;13.50;99.90;;;;;;5035129;28;20400;-77
2022/11/10 09:00:12;;;;;;;48.05;30.00;;;13.50;99.90;;;;;;5038859;28;20025;-74
2022/11/10 09:02:38;;;;;;;47.75;29.73;;;13.50;99.90;;;;;;5021994;28;20443;-74
2022/11/10 09:05:04;;;;;;;50.47;30.77;;;13.60;99.90;;;;;;5051640;28;20110;-74
2022/11/10 09:07:30;;;;;;;52.65;32.35;;;13.60;99.90;;;;;;5051158;28;20033;-74
2022/11/10 09:09:56;;;;;;;58.03;33.55;;;13.70;99.90;;;;;;5039554;28;20504;-74
2022/11/10 09:12:22;;;;;;;60.28;34.47;;;13.70;99.90;;;;;;5041526;28;20024;-73
2022/11/10 09:14:47;;;;;;;55.80;32.70;;;13.70;99.90;;;;;;5034197;28;20134;-74
2022/11/10 09:17:13;;;;;;;57.65;34.10;;;13.80;99.90;;;;;;5031670;28;20080;-74
2022/11/10 09:19:39;;;;;;;57.40;33.75;;;13.80;99.90;;;;;;5029244;28;20514;-74
2022/11/10 09:22:08;;;;;;;60.30;34.10;;;13.80;99.90;;;;;;5044231;28;20112;-74
2022/11/10 09:24:34;;;;;;;62.45;34.70;;;13.80;99.90;;;;;;5024260;28;20380;-74
2022/11/10 09:26:59;;;;;;;58.97;34.67;;;13.80;99.90;;;;;;5036285;28;20043;-73
2022/11/10 09:29:25;;;;;;;54.53;33.60;;;13.90;99.90;;;;;;5049981;28;20467;-73
2022/11/10 09:31:51;;;;;;;54.95;33.40;;;13.90;99.90;;;;;;5039153;28;20363;-74
2022/11/10 09:34:17;;;;;;;53.50;33.33;;;13.90;99.90;;;;;;5047934;28;20057;-74
2022/11/10 09:36:45;;;;;;;53.92;31.60;;;13.90;99.90;;;;;;5026361;28;20037;-74
2022/11/10 09:39:11;;;;;;;55.08;33.38;;;14.00;99.90;;;;;;5043033;28;20040;-74
2022/11/10 09:41:42;;;;;;;57.10;34.88;;;14.00;99.90;;;;;;5026305;28;20021;-74
2022/11/10 09:44:11;;;;;;;58.45;34.53;;;14.00;99.90;;;;;;5047563;28;20100;-74
2022/11/10 09:46:50;;;;;;;55.70;34.08;;;14.00;99.90;;;;;;5036067;28;20563;-77
2022/11/10 09:49:38;;;;;;;59.78;34.53;;;14.00;99.90;;;;;;5054036;28;20135;-77
2022/11/10 09:52:05;;;;;;;56.28;34.97;;;14.10;99.90;;;;;;5054278;28;20433;-77
2022/11/10 09:54:44;;;;;;;56.08;34.50;;;14.10;99.90;;;;;;5054007;28;20032;-76
2022/11/10 09:57:17;;;;;;;56.20;34.35;;;14.20;99.90;;;;;;5036052;28;20029;-77
2022/11/10 09:59:43;;;;;;;51.00;32.38;;;14.30;99.90;;;;;;5034172;28;20029;-77
2022/11/10 10:02:09;;;;;;;55.75;33.40;;;14.30;99.90;;;;;;5033882;28;20029;-77
2022/11/10 10:04:57;;;;;;;53.10;33.28;;;14.30;99.90;;;;;;5034115;28;20467;-77
2022/11/10 10:07:26;;;;;;;56.15;34.83;;;14.30;99.90;;;;;;5033970;28;20033;-77
2022/11/10 10:10:00;;;;;;;57.40;34.30;;;14.40;99.90;;;;;;5049067;28;20029;-77
2022/11/10 10:12:35;;;;;;;55.13;33.60;;;14.40;99.90;;;;;;5033892;28;20391;-77
2022/11/10 10:15:19;;;;;;;58.65;35.55;;;14.40;99.90;;;;;;5049095;28;20040;-78
2022/11/10 10:18:06;;;;;;;54.28;34.13;;;14.40;99.90;;;;;;5049121;28;20033;-77
2022/11/10 10:20:56;;;;;;;63.58;37.20;;;14.50;99.90;;;;;;5033350;28;20037;-77
2022/11/10 10:23:54;;;;;;;68.50;37.40;;;14.60;99.90;;;;;;5033290;28;20025;-77
2022/11/10 10:26:26;;;;;;;68.10;38.10;;;14.70;99.90;;;;;;5028123;28;20602;-77
2022/11/10 10:28:54;;;;;;;66.60;38.63;;;14.80;99.90;;;;;;5032358;28;20096;-76
2022/11/10 10:31:23;;;;;;;61.08;36.92;;;14.90;99.90;;;;;;5043410;28;20017;-76
2022/11/10 10:33:50;;;;;;;60.40;35.45;;;15.00;99.90;;;;;;5040061;28;20486;-75
2022/11/10 10:36:23;;;;;;;55.75;34.65;;;15.00;99.90;;;;;;5037004;28;20033;-76
2022/11/10 10:39:06;;;;;;;66.30;36.80;;;15.10;99.90;;;;;;5028070;28;20025;-76
2022/11/10 10:41:35;;;;;;;53.28;33.22;;;15.10;99.90;;;;;;5048940;28;20478;-73
2022/11/10 10:44:08;;;;;;;56.22;33.70;;;15.20;99.90;;;;;;5049522;28;20036;-73
2022/11/10 10:46:55;;;;;;;55.05;35.13;;;15.30;99.90;;;;;;5049211;28;20053;-73
2022/11/10 10:49:23;;;;;;;52.72;32.65;;;15.30;99.90;;;;;;5030682;28;20029;-76
2022/11/10 10:52:13;;;;;;;54.22;33.10;;;15.30;99.90;;;;;;5030613;28;20095;-76
2022/11/10 10:54:39;;;;;;;54.10;32.40;;;15.40;99.90;;;;;;5029737;28;20021;-76
2022/11/10 10:57:18;;;;;;;54.45;33.25;;;15.50;99.90;;;;;;5014459;28;20381;-76
2022/11/10 10:59:44;;;;;;;48.08;31.08;;;15.60;99.90;;;;;;5029577;28;20024;-76
2022/11/10 11:02:27;;;;;;;59.90;34.67;;;15.70;99.90;;;;;;5044599;28;20026;-77
2022/11/10 11:05:13;;;;;;;53.90;32.13;;;15.80;99.90;;;;;;5029509;28;20032;-76
2022/11/10 11:07:40;;;;;;;60.28;35.42;;;15.90;99.90;;;;;;5030451;28;20500;-81
2022/11/10 11:10:22;;;;;;;59.92;33.45;;;15.90;99.90;;;;;;5030774;28;20092;-77
2022/11/10 11:12:48;;;;;;;52.78;31.17;;;16.00;99.90;;;;;;5031109;28;20040;-81
2022/11/10 11:15:29;;;;;;;57.10;32.47;;;16.00;99.90;;;;;;5047857;28;20025;-81
2022/11/10 11:18:02;;;;;;;50.80;28.80;;;16.00;99.90;;;;;;5051549;28;20475;-80
2022/11/10 11:20:36;;;;;;;55.95;29.40;;;16.00;99.90;;;;;;5051015;28;20029;-81
2022/11/10 11:23:47;;;;;;;48.90;29.27;;;16.10;99.90;;;;;;5032155;28;20390;-81
2022/11/10 11:26:38;;;;;;;54.30;30.38;;;16.10;99.90;;;;;;5050647;28;20048;-78
2022/11/10 11:29:24;;;;;;;57.38;32.72;;;16.10;99.90;;;;;;5050061;28;20525;-81
2022/11/10 11:31:57;;;;;;;48.08;28.42;;;16.20;99.90;;;;;;5043204;28;20029;-81
2022/11/10 11:34:49;;;;;;;44.65;27.48;;;16.10;99.90;;;;;;5030314;28;20057;-80
2022/11/10 11:37:24;;;;;;;47.45;30.63;;;16.10;99.90;;;;;;4982589;28;20510;-77
2022/11/10 11:40:14;;;;;;;49.28;31.73;;;16.10;99.90;;;;;;5031626;28;20026;-77
2022/11/10 11:42:54;;;;;;;43.13;27.73;;;16.10;99.90;;;;;;5030637;28;20029;-80
2022/11/10 11:45:48;;;;;;;46.85;27.50;;;16.20;99.90;;;;;;5010253;28;20132;-79
2022/11/10 11:48:42;;;;;;;45.70;29.35;;;16.10;99.90;;;;;;5030282;28;20025;-80
2022/11/10 11:51:19;;;;;;;45.20;28.73;;;16.20;99.90;;;;;;5015267;28;20038;-81
2022/11/10 11:54:12;;;;;;;43.85;26.50;;;16.20;99.90;;;;;;5032389;28;20025;-81
2022/11/10 11:56:43;;;;;;;43.08;27.20;;;16.20;99.90;;;;;;5032787;28;20026;-78
2022/11/10 11:59:41;;;;;;;46.50;27.25;;;16.20;99.90;;;;;;5032612;28;20029;-75
2022/11/10 12:02:55;;;;;;;44.78;30.42;;;16.20;99.90;;;;;;4992763;28;20084;-74
2022/11/10 12:05:58;;;;;;;44.92;29.67;;;16.20;99.90;;;;;;4945452;28;20031;-74
2022/11/10 12:08:57;;;;;;;42.47;27.10;;;16.30;99.90;;;;;;5032275;28;20626;-76
2022/11/10 12:11:59;;;;;;;42.67;27.05;;;16.30;99.90;;;;;;5047821;28;20428;-76
2022/11/10 12:14:37;;;;;;;38.42;25.88;;;16.40;99.90;;;;;;5014339;28;20034;-81
2022/11/10 12:17:17;;;;;;;37.75;24.27;;;16.40;99.90;;;;;;5031422;28;20491;-81
2022/11/10 12:19:55;;;;;;;39.38;25.45;;;16.50;99.90;;;;;;5031488;28;20420;-82
2022/11/10 12:22:20;;;;;;;39.42;28.33;;;16.60;99.90;;;;;;5031236;28;20049;-81
2022/11/10 12:25:05;;;;;;;41.17;26.30;;;16.60;99.90;;;;;;5031302;28;20072;-79
2022/11/10 12:27:42;;;;;;;42.95;27.10;;;16.50;99.90;;;;;;5031168;28;20057;-79
2022/11/10 12:30:13;;;;;;;40.10;27.02;;;16.40;99.90;;;;;;5032007;28;20026;-82
2022/11/10 12:32:49;;;;;;;38.60;26.45;;;16.30;99.90;;;;;;5029927;28;20037;-81
2022/11/10 12:35:22;;;;;;;43.20;25.60;;;16.30;99.90;;;;;;5033383;28;20028;-79
2022/11/10 12:38:01;;;;;;;36.50;24.42;;;16.20;99.90;;;;;;5032962;28;20452;-82
2022/11/10 12:40:31;;;;;;;40.13;25.58;;;16.20;99.90;;;;;;5032531;28;20026;-79
2022/11/10 12:43:05;;;;;;;38.58;26.90;;;16.20;99.90;;;;;;5032935;28;20021;-82
2022/11/10 12:45:50;;;;;;;37.15;25.50;;;16.20;99.90;;;;;;5034299;28;20041;-81
2022/11/10 12:48:17;;;;;;;37.55;25.05;;;16.20;99.90;;;;;;5034286;28;20060;-82
2022/11/10 12:51:00;;;;;;;35.22;24.58;;;16.20;99.90;;;;;;5034231;28;20100;-79
2022/11/10 12:53:32;;;;;;;32.78;23.67;;;16.20;99.90;;;;;;5034455;28;20057;-82